Time;durP1;ratioP1;P1;durP2;ratioP2;P2;SDS_P1;SDS_P2;PMS_P1;PMS_P2;Temp;Humidity;BMP_temperature;BMP_pressure;BME280_temperature;BME280_humidity;BME280_pressure;Samples;Min_cycle;Max_cycle;Signal;HPM_P1;HPM_P2
2021/12/12 00:00:31;;;;;;;1.50;0.50;;;;;;;;;;4987592;28;20606;-58
2021/12/12 00:03:01;;;;;;;1.08;0.40;;;;;;;;;;4970611;28;20051;-57
2021/12/12 00:05:31;;;;;;;0.55;0.30;;;;;;;;;;4968680;28;20038;-58
2021/12/12 00:07:56;;;;;;;1.90;0.57;;;;;;;;;;4980126;28;20122;-58
2021/12/12 00:10:26;;;;;;;1.60;0.55;;;;;;;;;;4986100;28;20137;-59
2021/12/12 00:12:54;;;;;;;2.28;0.40;;;;;;;;;;4986499;28;20093;-57
2021/12/12 00:15:21;;;;;;;1.48;0.40;;;;;;;;;;4984699;28;20049;-58
2021/12/12 00:17:48;;;;;;;2.72;0.45;;;;;;;;;;4987789;28;20065;-57
2021/12/12 00:20:15;;;;;;;0.55;0.40;;;;;;;;;;4988390;28;20172;-58
2021/12/12 00:22:41;;;;;;;1.83;0.47;;;;;;;;;;4988560;28;20507;-59
2021/12/12 00:25:08;;;;;;;2.28;0.55;;;;;;;;;;4988090;28;20045;-59
2021/12/12 00:27:34;;;;;;;1.27;0.50;;;;;;;;;;4986871;28;20088;-57
2021/12/12 00:30:03;;;;;;;0.75;0.38;;;;;;;;;;4989560;28;20045;-59
2021/12/12 00:32:30;;;;;;;0.55;0.30;;;;;;;;;;4987914;28;21127;-57
2021/12/12 00:34:59;;;;;;;0.75;0.43;;;;;;;;;;4992198;28;20056;-58
2021/12/12 00:37:25;;;;;;;1.02;0.50;;;;;;;;;;4993003;28;20051;-59
2021/12/12 00:39:52;;;;;;;0.30;0.30;;;;;;;;;;4992434;28;20050;-59
2021/12/12 00:42:22;;;;;;;0.88;0.40;;;;;;;;;;4991983;28;20041;-58
2021/12/12 00:44:51;;;;;;;0.75;0.38;;;;;;;;;;4991747;28;20045;-60
2021/12/12 00:47:18;;;;;;;3.47;0.60;;;;;;;;;;4989756;28;20424;-60
2021/12/12 00:49:44;;;;;;;0.45;0.30;;;;;;;;;;4992167;28;20038;-58
2021/12/12 00:52:13;;;;;;;1.35;0.47;;;;;;;;;;4991939;28;20081;-59
2021/12/12 00:54:39;;;;;;;0.73;0.40;;;;;;;;;;4989533;28;20385;-59
2021/12/12 00:57:09;;;;;;;1.73;0.40;;;;;;;;;;4990179;28;20054;-59
2021/12/12 00:59:35;;;;;;;0.98;0.40;;;;;;;;;;4989088;28;20110;-59
2021/12/12 01:02:02;;;;;;;3.42;0.63;;;;;;;;;;4991919;28;20041;-58
2021/12/12 01:04:30;;;;;;;0.35;0.28;;;;;;;;;;4989685;28;20116;-59
2021/12/12 01:06:57;;;;;;;0.73;0.30;;;;;;;;;;4988663;28;20096;-59
2021/12/12 01:09:25;;;;;;;0.63;0.40;;;;;;;;;;4987881;28;20109;-60
2021/12/12 01:11:53;;;;;;;0.30;0.30;;;;;;;;;;4988167;28;20535;-60
2021/12/12 01:14:21;;;;;;;0.40;0.30;;;;;;;;;;4989054;28;20404;-60
2021/12/12 01:16:56;;;;;;;0.20;0.20;;;;;;;;;;4989358;28;20046;-58
2021/12/12 01:19:25;;;;;;;1.02;0.40;;;;;;;;;;4989085;28;20038;-60
2021/12/12 01:21:54;;;;;;;0.75;0.43;;;;;;;;;;4988774;28;20042;-60
2021/12/12 01:24:25;;;;;;;1.30;0.60;;;;;;;;;;4990140;28;20046;-60
2021/12/12 01:26:53;;;;;;;3.72;0.50;;;;;;;;;;4990911;28;20046;-59
2021/12/12 01:29:19;;;;;;;0.20;0.20;;;;;;;;;;4989771;28;20145;-60
2021/12/12 01:31:49;;;;;;;1.00;0.40;;;;;;;;;;4990328;28;20168;-59
2021/12/12 01:34:17;;;;;;;0.75;0.40;;;;;;;;;;4990541;28;20047;-58
2021/12/12 01:37:34;;;;;;;0.30;0.30;;;;;;;;;;5007666;28;20054;-56
2021/12/12 01:39:39;;;;;;;0.75;0.30;;;;;;;;;;4990874;28;21693;-60
2021/12/12 01:42:07;;;;;;;1.27;0.43;;;;;;;;;;5003751;28;20042;-59
2021/12/12 01:44:36;;;;;;;0.20;0.20;;;;;;;;;;4988981;28;20039;-55
2021/12/12 01:47:05;;;;;;;0.30;0.30;;;;;;;;;;4989312;28;20038;-60
2021/12/12 01:49:32;;;;;;;0.32;0.28;;;;;;;;;;4985850;28;20143;-57
2021/12/12 01:51:58;;;;;;;0.47;0.40;;;;;;;;;;4989679;28;20053;-59
2021/12/12 01:54:27;;;;;;;0.65;0.40;;;;;;;;;;4989432;28;20057;-61
2021/12/12 01:56:55;;;;;;;0.50;0.35;;;;;;;;;;4990418;28;20038;-59
2021/12/12 01:59:25;;;;;;;1.77;0.80;;;;;;;;;;4991049;28;20080;-57
2021/12/12 02:01:53;;;;;;;0.40;0.30;;;;;;;;;;4990705;28;20061;-59
2021/12/12 02:04:20;;;;;;;0.38;0.30;;;;;;;;;;4988071;28;20107;-60
2021/12/12 02:06:47;;;;;;;1.48;0.50;;;;;;;;;;4988168;28;20052;-60
2021/12/12 02:09:14;;;;;;;0.98;0.50;;;;;;;;;;4989839;28;20038;-60
2021/12/12 02:11:42;;;;;;;0.20;0.20;;;;;;;;;;4990875;28;20044;-59
2021/12/12 02:14:12;;;;;;;1.92;0.50;;;;;;;;;;4988817;28;20042;-60
2021/12/12 02:16:40;;;;;;;1.75;0.52;;;;;;;;;;4989888;28;20457;-60
2021/12/12 02:19:06;;;;;;;1.83;0.60;;;;;;;;;;4991307;28;20050;-60
2021/12/12 02:21:49;;;;;;;1.58;0.47;;;;;;;;;;4989241;28;20129;-60
2021/12/12 02:37:33;;;;;;;0.57;0.32;;;;;;;;;;4990262;28;20061;-59
2021/12/12 02:39:59;;;;;;;2.05;0.55;;;;;;;;;;4989068;28;20467;-58
2021/12/12 02:42:27;;;;;;;0.63;0.43;;;;;;;;;;4988417;28;21768;-59
2021/12/12 02:44:58;;;;;;;1.35;0.40;;;;;;;;;;4987902;28;20049;-59
2021/12/12 02:47:32;;;;;;;0.30;0.30;;;;;;;;;;4987609;28;20041;-58
2021/12/12 02:50:09;;;;;;;1.30;0.55;;;;;;;;;;4988532;28;20052;-60
2021/12/12 02:52:35;;;;;;;0.82;0.40;;;;;;;;;;4985856;28;20050;-60
2021/12/12 02:55:06;;;;;;;1.20;0.50;;;;;;;;;;4985396;28;20077;-60
2021/12/12 02:57:31;;;;;;;1.10;0.50;;;;;;;;;;4987794;28;20485;-58
2021/12/12 02:59:58;;;;;;;1.20;0.50;;;;;;;;;;4987949;28;20054;-60
2021/12/12 03:02:27;;;;;;;1.90;0.60;;;;;;;;;;4988821;28;20039;-59
2021/12/12 03:04:55;;;;;;;2.30;0.60;;;;;;;;;;4986689;28;20042;-59
2021/12/12 03:07:21;;;;;;;2.30;0.70;;;;;;;;;;4985752;28;20135;-57
2021/12/12 03:09:54;;;;;;;0.95;0.40;;;;;;;;;;4987375;28;20041;-59
2021/12/12 03:12:23;;;;;;;1.58;0.55;;;;;;;;;;4987297;28;20034;-59
2021/12/12 03:14:49;;;;;;;0.65;0.40;;;;;;;;;;4987714;28;20035;-59
2021/12/12 03:17:17;;;;;;;0.88;0.40;;;;;;;;;;4987767;28;20046;-59
2021/12/12 03:19:51;;;;;;;1.08;0.40;;;;;;;;;;5006057;28;20041;-59
2021/12/12 03:22:17;;;;;;;2.10;0.65;;;;;;;;;;5008110;28;20166;-60
2021/12/12 03:24:44;;;;;;;0.70;0.40;;;;;;;;;;4998288;28;20041;-60
2021/12/12 03:27:10;;;;;;;1.65;0.57;;;;;;;;;;5007076;28;20045;-61
2021/12/12 03:29:36;;;;;;;1.38;0.50;;;;;;;;;;4994180;28;20042;-61
2021/12/12 03:32:08;;;;;;;0.47;0.32;;;;;;;;;;4986446;28;20574;-60
2021/12/12 03:34:36;;;;;;;1.60;0.60;;;;;;;;;;4986388;28;20061;-61
2021/12/12 03:37:03;;;;;;;1.70;0.60;;;;;;;;;;4986343;28;20216;-58
2021/12/12 03:39:31;;;;;;;5.47;2.15;;;;;;;;;;4986629;28;20049;-60
2021/12/12 03:41:58;;;;;;;1.80;0.43;;;;;;;;;;4987749;28;20152;-60
2021/12/12 03:44:26;;;;;;;1.83;0.70;;;;;;;;;;4985140;28;20092;-60
2021/12/12 03:46:54;;;;;;;1.77;0.60;;;;;;;;;;4987184;28;20042;-61
2021/12/12 03:49:21;;;;;;;3.00;1.00;;;;;;;;;;4987270;28;20046;-60
2021/12/12 03:51:47;;;;;;;4.88;1.05;;;;;;;;;;4987753;28;20058;-61
2021/12/12 03:54:14;;;;;;;2.25;0.77;;;;;;;;;;4986752;28;20058;-60
2021/12/12 03:56:41;;;;;;;1.75;0.63;;;;;;;;;;4984417;28;20046;-61
2021/12/12 03:59:07;;;;;;;1.00;0.50;;;;;;;;;;4988795;28;20045;-62
2021/12/12 04:01:38;;;;;;;2.25;0.50;;;;;;;;;;4987725;28;20050;-59
2021/12/12 04:04:12;;;;;;;2.38;0.65;;;;;;;;;;4986134;28;20104;-59
2021/12/12 04:06:38;;;;;;;1.67;0.63;;;;;;;;;;4984761;28;20489;-61
2021/12/12 04:09:05;;;;;;;2.35;0.68;;;;;;;;;;4990542;28;20030;-59
2021/12/12 04:11:33;;;;;;;2.03;0.60;;;;;;;;;;4989527;28;20180;-58
2021/12/12 04:13:59;;;;;;;3.13;0.82;;;;;;;;;;4989874;28;20526;-60
2021/12/12 04:16:29;;;;;;;2.50;0.90;;;;;;;;;;4990194;28;20045;-58
2021/12/12 04:18:55;;;;;;;2.15;0.80;;;;;;;;;;4991253;28;20046;-59
2021/12/12 04:21:22;;;;;;;1.40;0.52;;;;;;;;;;4990742;28;20058;-59
2021/12/12 04:23:48;;;;;;;2.03;0.70;;;;;;;;;;4990434;28;20047;-60
2021/12/12 04:26:16;;;;;;;2.20;0.82;;;;;;;;;;4988801;28;20609;-59
2021/12/12 04:28:42;;;;;;;4.15;0.80;;;;;;;;;;4999719;28;20171;-59
2021/12/12 04:31:08;;;;;;;1.95;0.63;;;;;;;;;;5010602;28;20037;-59
2021/12/12 04:33:34;;;;;;;2.45;0.77;;;;;;;;;;4996633;28;20049;-58
2021/12/12 04:36:00;;;;;;;2.15;0.77;;;;;;;;;;4989981;28;20054;-60
2021/12/12 04:38:26;;;;;;;2.17;0.82;;;;;;;;;;4987976;28;20105;-59
2021/12/12 04:40:52;;;;;;;3.50;1.05;;;;;;;;;;4988899;28;20054;-59
2021/12/12 04:43:18;;;;;;;1.73;0.70;;;;;;;;;;4990018;28;20085;-61
2021/12/12 04:45:52;;;;;;;2.47;0.75;;;;;;;;;;4990265;28;20057;-59
2021/12/12 04:51:11;;;;;;;3.03;1.00;;;;;;;;;;4990840;28;20061;-60
2021/12/12 04:53:42;;;;;;;6.82;1.20;;;;;;;;;;4989988;28;20605;-61
2021/12/12 04:56:14;;;;;;;3.15;0.90;;;;;;;;;;4990924;28;20121;-61
2021/12/12 04:58:58;;;;;;;2.20;0.85;;;;;;;;;;4990264;28;20042;-62
2021/12/12 05:01:52;;;;;;;3.17;1.17;;;;;;;;;;4989585;28;20054;-59
2021/12/12 05:04:18;;;;;;;3.10;1.08;;;;;;;;;;4967040;28;20459;-62
2021/12/12 05:06:46;;;;;;;3.97;1.30;;;;;;;;;;5001148;28;20046;-61
2021/12/12 05:09:50;;;;;;;2.90;1.20;;;;;;;;;;5010707;28;20041;-59
2021/12/12 05:12:15;;;;;;;2.53;0.98;;;;;;;;;;4969587;28;21198;-60
2021/12/12 05:14:46;;;;;;;5.88;1.50;;;;;;;;;;4993545;28;20204;-60
2021/12/12 05:17:21;;;;;;;3.25;1.30;;;;;;;;;;5010475;28;20042;-60
2021/12/12 05:19:50;;;;;;;3.30;1.08;;;;;;;;;;4989446;28;20096;-61
2021/12/12 05:22:17;;;;;;;2.88;1.10;;;;;;;;;;4990381;28;20034;-60
2021/12/12 05:24:46;;;;;;;2.72;1.13;;;;;;;;;;4987934;28;20069;-61
2021/12/12 05:27:14;;;;;;;2.88;1.15;;;;;;;;;;4990982;28;20035;-60
2021/12/12 05:29:43;;;;;;;3.83;1.25;;;;;;;;;;4988632;28;20049;-60
2021/12/12 05:32:10;;;;;;;4.35;1.40;;;;;;;;;;4989469;28;20097;-60
2021/12/12 05:34:37;;;;;;;3.15;1.30;;;;;;;;;;4985407;28;20128;-61
2021/12/12 05:37:03;;;;;;;3.40;1.35;;;;;;;;;;4990373;28;20053;-61
2021/12/12 05:39:30;;;;;;;5.00;1.45;;;;;;;;;;4988558;28;20077;-60
2021/12/12 05:41:56;;;;;;;3.72;1.40;;;;;;;;;;4988132;28;20514;-60
2021/12/12 05:44:23;;;;;;;4.63;1.60;;;;;;;;;;4987978;28;20121;-61
2021/12/12 05:46:49;;;;;;;3.58;1.33;;;;;;;;;;4989278;28;20225;-59
2021/12/12 05:49:15;;;;;;;3.15;1.40;;;;;;;;;;4990630;28;20566;-61
2021/12/12 05:51:41;;;;;;;3.17;1.40;;;;;;;;;;4989599;28;20039;-61
2021/12/12 05:54:07;;;;;;;5.93;1.95;;;;;;;;;;4992862;28;20575;-62
2021/12/12 05:56:35;;;;;;;3.65;1.60;;;;;;;;;;4989275;28;20113;-61
2021/12/12 05:59:02;;;;;;;9.32;2.08;;;;;;;;;;4992430;28;20049;-59
2021/12/12 06:01:29;;;;;;;3.67;1.58;;;;;;;;;;4987524;28;20042;-61
2021/12/12 06:03:55;;;;;;;11.93;2.10;;;;;;;;;;4988994;28;20109;-62
2021/12/12 06:06:23;;;;;;;5.93;2.10;;;;;;;;;;4987882;28;20512;-59
2021/12/12 06:08:49;;;;;;;4.32;2.20;;;;;;;;;;4989181;28;20416;-58
2021/12/12 06:11:16;;;;;;;4.05;1.77;;;;;;;;;;4988145;28;20445;-60
2021/12/12 06:13:42;;;;;;;6.22;3.00;;;;;;;;;;4987327;28;20058;-60
2021/12/12 06:16:09;;;;;;;8.77;3.33;;;;;;;;;;4992307;28;20052;-60
2021/12/12 06:18:35;;;;;;;7.13;3.47;;;;;;;;;;4989668;28;20034;-58
2021/12/12 06:21:02;;;;;;;9.30;3.05;;;;;;;;;;4987348;28;20132;-59
2021/12/12 06:23:28;;;;;;;6.95;3.33;;;;;;;;;;4987865;28;20395;-57
2021/12/12 06:25:54;;;;;;;8.02;3.33;;;;;;;;;;4986870;28;20046;-59
2021/12/12 06:28:22;;;;;;;7.50;3.25;;;;;;;;;;4987581;28;20977;-59
2021/12/12 06:30:48;;;;;;;6.97;3.70;;;;;;;;;;4987613;28;20172;-59
2021/12/12 06:33:14;;;;;;;6.88;3.42;;;;;;;;;;4987678;28;20038;-60
2021/12/12 06:35:40;;;;;;;7.60;3.22;;;;;;;;;;4989518;28;20093;-59
2021/12/12 06:38:08;;;;;;;5.82;2.67;;;;;;;;;;4988883;28;20057;-60
2021/12/12 06:40:34;;;;;;;6.63;3.00;;;;;;;;;;5001797;28;20147;-59
2021/12/12 06:43:01;;;;;;;6.80;2.97;;;;;;;;;;4986735;28;20400;-56
2021/12/12 06:45:27;;;;;;;5.78;2.90;;;;;;;;;;4986108;28;20191;-58
2021/12/12 06:47:54;;;;;;;5.50;2.67;;;;;;;;;;4987755;28;20045;-58
2021/12/12 06:50:22;;;;;;;6.45;2.95;;;;;;;;;;4988367;28;20038;-59
2021/12/12 06:52:48;;;;;;;6.50;2.35;;;;;;;;;;4988497;28;20046;-59
2021/12/12 06:55:14;;;;;;;5.03;2.17;;;;;;;;;;4986215;28;20044;-57
2021/12/12 06:57:41;;;;;;;6.05;2.10;;;;;;;;;;4987776;28;20046;-59
2021/12/12 07:00:12;;;;;;;8.77;2.38;;;;;;;;;;4989195;28;20046;-59
2021/12/12 07:02:40;;;;;;;5.45;2.20;;;;;;;;;;4987493;28;20046;-59
2021/12/12 07:05:06;;;;;;;5.50;2.22;;;;;;;;;;4985630;28;20034;-58
2021/12/12 07:07:32;;;;;;;7.13;1.88;;;;;;;;;;4987422;28;20049;-59
2021/12/12 07:09:58;;;;;;;5.45;1.88;;;;;;;;;;4989401;28;20096;-59
2021/12/12 07:12:24;;;;;;;8.35;1.85;;;;;;;;;;4988028;28;20395;-59
2021/12/12 07:14:52;;;;;;;7.40;1.80;;;;;;;;;;4988117;28;20077;-59
2021/12/12 07:17:19;;;;;;;7.03;2.45;;;;;;;;;;4987665;28;20040;-60
2021/12/12 07:19:45;;;;;;;4.18;1.85;;;;;;;;;;4988429;28;20080;-59
2021/12/12 07:22:11;;;;;;;6.10;2.10;;;;;;;;;;4988655;28;20112;-58
2021/12/12 07:24:37;;;;;;;6.95;2.35;;;;;;;;;;4985429;28;20038;-59
2021/12/12 07:27:03;;;;;;;6.93;2.30;;;;;;;;;;4987797;28;20461;-59
2021/12/12 07:29:29;;;;;;;6.63;2.15;;;;;;;;;;4987365;28;20046;-59
2021/12/12 07:31:56;;;;;;;5.78;2.20;;;;;;;;;;4988808;28;20378;-60
2021/12/12 07:34:22;;;;;;;4.00;1.90;;;;;;;;;;4986875;28;20056;-58
2021/12/12 07:36:51;;;;;;;5.65;2.25;;;;;;;;;;4988281;28;20046;-60
2021/12/12 07:39:17;;;;;;;10.00;2.60;;;;;;;;;;4987045;28;20041;-59
2021/12/12 07:41:44;;;;;;;5.25;2.50;;;;;;;;;;4989352;28;20072;-60
2021/12/12 07:44:11;;;;;;;8.52;2.85;;;;;;;;;;4993994;28;20038;-58
2021/12/12 07:46:37;;;;;;;5.25;2.33;;;;;;;;;;4993092;28;20038;-58
2021/12/12 07:49:04;;;;;;;6.72;2.90;;;;;;;;;;4994103;28;20507;-59
2021/12/12 07:51:30;;;;;;;7.25;2.90;;;;;;;;;;4992714;28;20060;-60
2021/12/12 07:53:57;;;;;;;8.13;2.90;;;;;;;;;;4990136;28;20046;-59
2021/12/12 07:56:24;;;;;;;5.15;2.50;;;;;;;;;;4991561;28;20648;-60
2021/12/12 07:58:50;;;;;;;9.23;3.33;;;;;;;;;;4994342;28;20503;-59
2021/12/12 08:01:16;;;;;;;9.50;4.20;;;;;;;;;;4994203;28;20066;-59
2021/12/12 08:03:43;;;;;;;7.68;4.18;;;;;;;;;;4993500;28;20046;-59
2021/12/12 08:06:10;;;;;;;11.73;4.55;;;;;;;;;;4990711;28;20038;-60
2021/12/12 08:08:36;;;;;;;8.93;4.68;;;;;;;;;;4993142;28;20114;-57
2021/12/12 08:11:03;;;;;;;8.85;4.40;;;;;;;;;;4993235;28;20039;-59
2021/12/12 08:13:30;;;;;;;17.33;4.40;;;;;;;;;;4991651;28;22470;-59
2021/12/12 08:15:56;;;;;;;7.15;3.80;;;;;;;;;;4993012;28;20128;-59
2021/12/12 08:18:22;;;;;;;8.98;4.10;;;;;;;;;;4993307;28;20046;-59
2021/12/12 08:20:49;;;;;;;9.25;4.13;;;;;;;;;;4992865;28;20407;-58
2021/12/12 08:23:16;;;;;;;6.20;3.05;;;;;;;;;;4993051;28;20092;-59
2021/12/12 08:25:42;;;;;;;8.57;3.83;;;;;;;;;;4992720;28;20046;-59
2021/12/12 08:28:09;;;;;;;11.23;3.55;;;;;;;;;;4993421;28;20031;-61
2021/12/12 08:30:35;;;;;;;5.70;3.22;;;;;;;;;;4993161;28;20045;-59
2021/12/12 08:33:02;;;;;;;8.18;3.92;;;;;;;;;;4994387;28;20153;-59
2021/12/12 08:35:28;;;;;;;9.48;2.97;;;;;;;;;;4990906;28;20107;-59
2021/12/12 08:37:55;;;;;;;7.07;3.38;;;;;;;;;;4993879;28;20049;-60
2021/12/12 08:40:23;;;;;;;7.00;2.47;;;;;;;;;;4993041;28;20209;-59
2021/12/12 08:42:50;;;;;;;5.35;2.78;;;;;;;;;;4992362;28;20038;-60
2021/12/12 08:45:17;;;;;;;6.78;2.95;;;;;;;;;;4992118;28;20038;-61
2021/12/12 08:47:43;;;;;;;6.88;3.55;;;;;;;;;;4984321;28;20921;-60
2021/12/12 08:50:13;;;;;;;8.13;2.58;;;;;;;;;;4997932;28;20107;-60
2021/12/12 08:52:41;;;;;;;6.25;2.83;;;;;;;;;;4993257;28;20042;-59
2021/12/12 08:55:15;;;;;;;5.22;2.60;;;;;;;;;;4989774;28;20100;-62
2021/12/12 08:57:52;;;;;;;5.47;2.90;;;;;;;;;;4988899;28;20041;-59
2021/12/12 09:00:18;;;;;;;6.30;2.95;;;;;;;;;;4990022;28;20058;-57
2021/12/12 09:02:45;;;;;;;4.85;2.15;;;;;;;;;;4990309;28;20030;-59
2021/12/12 09:05:26;;;;;;;5.35;2.47;;;;;;;;;;4989337;28;20046;-59
2021/12/12 09:07:55;;;;;;;6.07;2.20;;;;;;;;;;4989576;28;20046;-59
2021/12/12 09:10:21;;;;;;;4.93;1.90;;;;;;;;;;4985999;28;20042;-59
2021/12/12 09:12:59;;;;;;;6.43;2.15;;;;;;;;;;4990772;28;20045;-60
2021/12/12 09:15:37;;;;;;;5.10;2.33;;;;;;;;;;4987901;28;20046;-59
2021/12/12 09:18:06;;;;;;;4.00;1.20;;;;;;;;;;4990084;28;20109;-60
2021/12/12 09:20:46;;;;;;;4.90;1.95;;;;;;;;;;4989989;28;20042;-59
2021/12/12 09:23:16;;;;;;;5.68;2.10;;;;;;;;;;4988865;28;20046;-59
2021/12/12 09:25:50;;;;;;;4.07;1.92;;;;;;;;;;4988346;28;20532;-59
2021/12/12 09:28:22;;;;;;;5.20;2.30;;;;;;;;;;4990551;28;20037;-59
2021/12/12 09:30:48;;;;;;;5.22;2.30;;;;;;;;;;4987146;28;20053;-59
2021/12/12 09:33:20;;;;;;;5.10;2.50;;;;;;;;;;4988961;28;20057;-59
2021/12/12 09:36:03;;;;;;;5.00;2.50;;;;;;;;;;4986867;28;20051;-58
2021/12/12 09:38:32;;;;;;;6.25;2.40;;;;;;;;;;4988464;28;20619;-60
2021/12/12 09:41:11;;;;;;;4.90;2.25;;;;;;;;;;4990289;28;20054;-61
2021/12/12 09:43:57;;;;;;;5.72;2.58;;;;;;;;;;4989715;28;20042;-60
2021/12/12 09:46:45;;;;;;;5.13;2.15;;;;;;;;;;4969087;28;20039;-59
2021/12/12 09:52:04;;;;;;;4.72;2.20;;;;;;;;;;4988433;28;20151;-60
2021/12/12 09:54:40;;;;;;;5.50;2.60;;;;;;;;;;4986332;28;20672;-60
2021/12/12 09:57:06;;;;;;;5.63;2.72;;;;;;;;;;4988220;28;20046;-60
2021/12/12 09:59:48;;;;;;;4.80;2.47;;;;;;;;;;4990230;28;20493;-60
2021/12/12 10:02:29;;;;;;;6.35;2.30;;;;;;;;;;4988905;28;20123;-61
2021/12/12 10:05:15;;;;;;;7.30;2.35;;;;;;;;;;4984804;28;20034;-59
2021/12/12 10:07:58;;;;;;;4.75;2.22;;;;;;;;;;4989466;28;20087;-60
2021/12/12 10:10:31;;;;;;;5.88;2.60;;;;;;;;;;4989647;28;20070;-59
2021/12/12 10:13:13;;;;;;;5.97;2.95;;;;;;;;;;4989687;28;20180;-60
2021/12/12 10:15:42;;;;;;;5.63;2.33;;;;;;;;;;4991022;28;20123;-60
2021/12/12 10:18:15;;;;;;;6.93;2.60;;;;;;;;;;4991231;28;20057;-60
2021/12/12 10:20:44;;;;;;;5.15;2.70;;;;;;;;;;4990948;28;20412;-61
2021/12/12 10:23:15;;;;;;;6.90;2.85;;;;;;;;;;4993387;28;20133;-60
2021/12/12 10:25:53;;;;;;;7.55;3.20;;;;;;;;;;4989267;28;20092;-60
2021/12/12 10:28:34;;;;;;;5.85;2.80;;;;;;;;;;4993198;28;20133;-59
2021/12/12 10:31:12;;;;;;;5.43;2.70;;;;;;;;;;4990601;28;20038;-59
2021/12/12 10:33:53;;;;;;;5.22;2.70;;;;;;;;;;4989227;28;20039;-60
2021/12/12 10:36:23;;;;;;;6.93;3.10;;;;;;;;;;4986730;28;20054;-59
2021/12/12 10:39:02;;;;;;;7.30;3.05;;;;;;;;;;4989127;28;20676;-60
2021/12/12 10:41:38;;;;;;;9.77;2.70;;;;;;;;;;4988204;28;20204;-60
2021/12/12 10:44:04;;;;;;;6.00;2.40;;;;;;;;;;4985526;28;20137;-60
2021/12/12 10:46:45;;;;;;;7.75;2.70;;;;;;;;;;4986725;28;20034;-60
2021/12/12 10:49:17;;;;;;;4.05;1.70;;;;;;;;;;4986228;28;20411;-60
2021/12/12 10:51:50;;;;;;;3.40;1.27;;;;;;;;;;4987282;28;20525;-60
2021/12/12 10:54:24;;;;;;;3.08;1.00;;;;;;;;;;4986302;28;20042;-60
2021/12/12 10:57:08;;;;;;;2.28;0.98;;;;;;;;;;4986775;28;20052;-60
2021/12/12 10:59:33;;;;;;;;;;;;;;;;;;4987329;28;20041;-61
2021/12/12 11:02:02;;;;;;;3.20;0.90;;;;;;;;;;4987835;28;19936;-60
2021/12/12 11:04:39;;;;;;;3.92;1.17;;;;;;;;;;4984392;28;20172;-60
2021/12/12 11:07:07;;;;;;;2.97;1.20;;;;;;;;;;4988036;28;20581;-60
2021/12/12 11:10:05;;;;;;;3.75;1.02;;;;;;;;;;4987575;28;20034;-60
2021/12/12 11:12:40;;;;;;;3.03;1.00;;;;;;;;;;4987351;28;20045;-59
2021/12/12 11:15:09;;;;;;;4.05;1.25;;;;;;;;;;4987211;28;20048;-61
2021/12/12 11:17:57;;;;;;;2.88;1.10;;;;;;;;;;4987593;28;20034;-60
2021/12/12 11:20:26;;;;;;;1.77;0.65;;;;;;;;;;4987984;28;20549;-59
2021/12/12 11:22:55;;;;;;;3.72;0.90;;;;;;;;;;5007999;28;20037;-59
2021/12/12 11:25:30;;;;;;;3.03;0.98;;;;;;;;;;5006865;28;20085;-60
2021/12/12 11:28:02;;;;;;;2.95;0.82;;;;;;;;;;5002140;28;20266;-59
2021/12/12 11:30:32;;;;;;;2.03;0.73;;;;;;;;;;4989109;28;20053;-58
2021/12/12 11:33:00;;;;;;;2.05;0.80;;;;;;;;;;4988300;28;20042;-60
2021/12/12 11:35:26;;;;;;;2.13;0.70;;;;;;;;;;4986031;28;20050;-59
2021/12/12 11:37:52;;;;;;;2.53;0.63;;;;;;;;;;4988256;28;20087;-60
2021/12/12 11:40:24;;;;;;;2.25;0.77;;;;;;;;;;4988547;28;20091;-59
2021/12/12 11:42:53;;;;;;;1.00;0.43;;;;;;;;;;4988804;28;20369;-59
2021/12/12 11:45:26;;;;;;;3.17;0.90;;;;;;;;;;4987502;28;20109;-59
2021/12/12 11:47:53;;;;;;;1.98;0.60;;;;;;;;;;4988805;28;20042;-59
2021/12/12 11:50:32;;;;;;;1.83;0.70;;;;;;;;;;4988406;28;20042;-59
2021/12/12 11:53:23;;;;;;;0.75;0.47;;;;;;;;;;4989633;28;20122;-59
2021/12/12 11:55:55;;;;;;;1.77;0.63;;;;;;;;;;4987523;28;20042;-59
2021/12/12 11:58:33;;;;;;;1.50;0.60;;;;;;;;;;4987103;28;20404;-59
2021/12/12 12:01:02;;;;;;;1.58;0.60;;;;;;;;;;4988408;28;20050;-60
2021/12/12 12:03:32;;;;;;;1.52;0.50;;;;;;;;;;4985923;28;20047;-59
2021/12/12 12:06:02;;;;;;;1.15;0.52;;;;;;;;;;4986767;28;20114;-59
2021/12/12 12:08:34;;;;;;;1.00;0.60;;;;;;;;;;4986433;28;20050;-56
2021/12/12 12:11:04;;;;;;;1.95;0.50;;;;;;;;;;4986907;28;20533;-58
2021/12/12 12:13:33;;;;;;;1.00;0.40;;;;;;;;;;4987945;28;20507;-59
2021/12/12 12:16:18;;;;;;;0.77;0.40;;;;;;;;;;4986161;28;20569;-58
2021/12/12 12:18:47;;;;;;;0.77;0.40;;;;;;;;;;4986025;28;20069;-58
2021/12/12 12:21:18;;;;;;;0.82;0.40;;;;;;;;;;4986121;28;20043;-59
2021/12/12 12:26:52;;;;;;;0.30;0.30;;;;;;;;;;4986237;28;20050;-60
2021/12/12 12:29:33;;;;;;;1.08;0.30;;;;;;;;;;4987885;28;20042;-60
2021/12/12 12:32:05;;;;;;;0.30;0.30;;;;;;;;;;4991111;28;20442;-58
2021/12/12 12:34:49;;;;;;;0.55;0.30;;;;;;;;;;4987932;28;20419;-59
2021/12/12 12:37:36;;;;;;;0.52;0.30;;;;;;;;;;4990027;28;21746;-59
2021/12/12 12:40:40;;;;;;;1.85;0.50;;;;;;;;;;4994707;28;20058;-60
2021/12/12 12:43:24;;;;;;;0.32;0.32;;;;;;;;;;4946378;28;20381;-59
2021/12/12 12:45:52;;;;;;;3.20;0.60;;;;;;;;;;4946455;28;20049;-59
2021/12/12 12:48:37;;;;;;;0.47;0.30;;;;;;;;;;4971890;28;20135;-57
2021/12/12 12:51:03;;;;;;;0.73;0.38;;;;;;;;;;4988864;28;20041;-60
2021/12/12 12:53:28;;;;;;;0.38;0.30;;;;;;;;;;4989897;28;20516;-59
2021/12/12 12:56:07;;;;;;;0.38;0.32;;;;;;;;;;4989776;28;20042;-57
2021/12/12 12:58:56;;;;;;;1.63;0.57;;;;;;;;;;4990241;28;20054;-59
2021/12/12 13:01:40;;;;;;;0.45;0.30;;;;;;;;;;4987984;28;20617;-59
2021/12/12 13:04:24;;;;;;;0.65;0.30;;;;;;;;;;4989283;28;20056;-59
2021/12/12 13:07:02;;;;;;;2.55;0.40;;;;;;;;;;4989056;28;20065;-59
2021/12/12 13:09:35;;;;;;;0.57;0.30;;;;;;;;;;4989675;28;20050;-58
2021/12/12 13:12:10;;;;;;;1.50;0.57;;;;;;;;;;4989247;28;20030;-59
2021/12/12 13:14:57;;;;;;;0.57;0.38;;;;;;;;;;4987554;28;20288;-60
2021/12/12 13:17:29;;;;;;;0.50;0.32;;;;;;;;;;4989114;28;20049;-59
2021/12/12 13:19:55;;;;;;;0.93;0.40;;;;;;;;;;4990433;28;20474;-56
2021/12/12 13:22:35;;;;;;;1.25;0.45;;;;;;;;;;4989134;28;20068;-59
2021/12/12 13:25:14;;;;;;;0.63;0.40;;;;;;;;;;4988422;28;20550;-57
2021/12/12 13:28:03;;;;;;;0.40;0.40;;;;;;;;;;4986749;28;20565;-58
2021/12/12 13:30:48;;;;;;;1.20;0.50;;;;;;;;;;4989919;28;20042;-58
2021/12/12 13:33:17;;;;;;;0.55;0.35;;;;;;;;;;4987952;28;20044;-59
2021/12/12 13:36:03;;;;;;;0.22;0.22;;;;;;;;;;4988389;28;20058;-59
2021/12/12 13:38:48;;;;;;;0.30;0.30;;;;;;;;;;4988387;28;20144;-59
2021/12/12 13:41:27;;;;;;;0.38;0.30;;;;;;;;;;4989305;28;20049;-56
2021/12/12 13:44:28;;;;;;;0.90;0.40;;;;;;;;;;4988945;28;20046;-58
2021/12/12 13:47:03;;;;;;;2.10;0.50;;;;;;;;;;4993306;28;20520;-59
2021/12/12 13:49:37;;;;;;;3.92;0.50;;;;;;;;;;4986085;28;20479;-60
2021/12/12 13:52:03;;;;;;;2.58;0.47;;;;;;;;;;4989564;28;20862;-60
2021/12/12 13:54:38;;;;;;;4.97;0.60;;;;;;;;;;4987149;28;20042;-60
2021/12/12 13:57:10;;;;;;;1.27;0.60;;;;;;;;;;4989628;28;20050;-58
2021/12/12 13:59:47;;;;;;;0.90;0.40;;;;;;;;;;4989284;28;20038;-58
2021/12/12 14:02:13;;;;;;;0.77;0.45;;;;;;;;;;4989205;28;20043;-57
2021/12/12 14:04:42;;;;;;;2.17;0.45;;;;;;;;;;4987491;28;20414;-59
2021/12/12 14:07:08;;;;;;;0.98;0.40;;;;;;;;;;4989914;28;20052;-58
2021/12/12 14:09:36;;;;;;;0.35;0.28;;;;;;;;;;4999305;28;20037;-56
2021/12/12 14:12:03;;;;;;;0.20;0.20;;;;;;;;;;5009647;28;20887;-54
2021/12/12 14:14:47;;;;;;;0.30;0.30;;;;;;;;;;5008099;28;20512;-59
2021/12/12 14:17:27;;;;;;;0.90;0.43;;;;;;;;;;4995384;28;20157;-59
2021/12/12 14:19:58;;;;;;;0.93;0.40;;;;;;;;;;4989983;28;21013;-59
2021/12/12 14:22:24;;;;;;;1.33;0.38;;;;;;;;;;4990530;28;20062;-59
2021/12/12 14:24:51;;;;;;;0.75;0.43;;;;;;;;;;4989285;28;20192;-59
2021/12/12 14:27:18;;;;;;;0.20;0.20;;;;;;;;;;4989156;28;20046;-58
2021/12/12 14:29:46;;;;;;;2.28;0.60;;;;;;;;;;4989127;28;20061;-59
2021/12/12 14:32:36;;;;;;;1.45;0.55;;;;;;;;;;4989273;28;20069;-61
2021/12/12 14:35:05;;;;;;;0.28;0.28;;;;;;;;;;4997245;28;20417;-59
2021/12/12 14:37:34;;;;;;;0.75;0.40;;;;;;;;;;5009416;28;20042;-59
2021/12/12 14:40:03;;;;;;;0.52;0.30;;;;;;;;;;5008628;28;20045;-60
2021/12/12 14:42:29;;;;;;;0.32;0.30;;;;;;;;;;4998995;28;20046;-61
2021/12/12 14:45:10;;;;;;;1.60;0.52;;;;;;;;;;4987766;28;20037;-59
2021/12/12 14:47:38;;;;;;;0.45;0.30;;;;;;;;;;4987826;28;20132;-60
2021/12/12 14:50:29;;;;;;;1.55;0.40;;;;;;;;;;4989427;28;20046;-61
2021/12/12 14:52:57;;;;;;;1.40;0.60;;;;;;;;;;4986372;28;20376;-60
2021/12/12 14:55:25;;;;;;;4.40;0.43;;;;;;;;;;4987488;28;20069;-59
2021/12/12 14:57:52;;;;;;;0.20;0.20;;;;;;;;;;4988337;28;20803;-57
2021/12/12 15:00:23;;;;;;;0.85;0.40;;;;;;;;;;4988140;28;20041;-60
2021/12/12 15:02:49;;;;;;;0.47;0.30;;;;;;;;;;4975279;28;20113;-59
2021/12/12 15:05:15;;;;;;;0.90;0.40;;;;;;;;;;4986603;28;20042;-59
2021/12/12 15:07:45;;;;;;;2.03;0.50;;;;;;;;;;4988504;28;20053;-59
2021/12/12 15:10:16;;;;;;;0.88;0.40;;;;;;;;;;4988294;28;20044;-60
2021/12/12 15:12:44;;;;;;;0.88;0.50;;;;;;;;;;4988456;28;20093;-59
2021/12/12 15:15:13;;;;;;;0.30;0.30;;;;;;;;;;4989209;28;20738;-59
2021/12/12 15:17:39;;;;;;;0.82;0.40;;;;;;;;;;4989216;28;20520;-59
2021/12/12 15:20:16;;;;;;;0.52;0.30;;;;;;;;;;4988214;28;20739;-60
2021/12/12 15:22:43;;;;;;;5.03;0.45;;;;;;;;;;4987986;28;20873;-60
2021/12/12 15:25:17;;;;;;;0.57;0.30;;;;;;;;;;4987044;28;20154;-59